• Join FlightAware (Why Join?)
  • Login
  • US Flag 
09:17AM EDT


 

Airport Tracker/Info


-or-


 

Live Flight TrackerFlight Track Log ✈ SEJ306 ✈ 07-May-2013 ✈ VOMM / MAA - VIDP / DEL

Flight Track Log - Related Links

Times and Time Zones

All times are in EDT time to prevent confusion due to time zone crossing. See the SEJ306 flight status page for this flight to view local times or setup timezone preferences in your user account.

Time Position Orientation Groundspeed Altitude Reporting Facility
EDT Latitude Longitude Course Direction KTS MPH feet Rate Location/Type
07:34AM 12.9920 80.1750 56° Northeast 163 188 500  Level FlightAware
07:35AM 13.0020 80.1960 64° Northeast 178 205 1,600 1,860 Climbing FlightAware
07:35AM 13.0160 80.2050 32° Northeast 224 258 1,900 960 Climbing FlightAware
07:35AM 13.0220 80.2050 360° North 240 276 2,000 1,920 Climbing FlightAware
07:35AM 13.0400 80.1990 342° North 256 295 2,700 3,720 Climbing FlightAware
07:36AM 13.0850 80.1820 340° North 268 308 4,800 3,480 Climbing FlightAware
07:36AM 13.1140 80.1740 345° North 274 315 5,900 1,380 Climbing FlightAware
07:37AM 13.1510 80.1660 348° North 280 322 6,100 1,500 Climbing FlightAware
07:37AM 13.1850 80.1570 346° North 282 325 7,300 2,820 Climbing FlightAware
07:38AM 13.2020 80.1530 347° North 285 328 8,000 1,860 Climbing FlightAware
07:38AM 13.2380 80.1490 354° North 290 334 8,700 1,860 Climbing FlightAware
07:38AM 13.2630 80.1480 358° North 293 337 9,400 2,280 Climbing FlightAware
07:39AM 13.3200 80.1410 353° North 320 368 10,800 1,800 Climbing FlightAware
07:40AM 13.3580 80.1270 340° North 350 403 11,700 1,680 Climbing FlightAware
07:40AM 13.4170 80.1010 337° Northwest 354 407 12,900 840 Climbing FlightAware
07:41AM 13.4790 80.0740 337° Northwest 354 407 12,900  Level FlightAware
07:42AM 13.5300 80.0510 336° Northwest 354 407 12,900 2,340 Level FlightAware
07:44AM 13.7398 80.0134 350° North  Level Estimated
07:45AM 13.8512 79.9935 350° North  Level Estimated
07:45AM 13.8540 79.9560 350° North 399 459 21,300  Level FlightAware
07:45AM 13.9160 79.9430 348° North 399 459 21,300  Level FlightAware
07:46AM 13.9770 79.9290 347° North 399 459 21,300 3,300 Level FlightAware
07:47AM 14.0970 79.9060 349° North 418 481 26,000 3,300 Climbing FlightAware
07:47AM 14.1610 79.8920 348° North 418 481 26,000  Level FlightAware
07:48AM 14.2250 79.8780 348° North 418 481 26,000 2,820 Level FlightAware
07:49AM 14.3630 79.8510 349° North 444 511 30,300 3,600 Climbing FlightAware
07:49AM 14.4170 79.8400 349° North 452 520 30,800 360 Climbing FlightAware
07:50AM 14.5010 79.8210 348° North 452 520 30,800 840 Level FlightAware
07:51AM 14.6240 79.7960 349° North 482 555 32,200 960 Climbing FlightAware
07:51AM 14.6900 79.7810 348° North 482 555 32,200  Level FlightAware
07:52AM 14.7830 79.7610 348° North 482 555 32,200 2,220 Level FlightAware
07:53AM 14.9020 79.7380 349° North 470 541 35,600 3,300 Climbing FlightAware
07:54AM 14.9920 79.7190 348° North 460 529 36,900 1,680 Climbing FlightAware
07:54AM 15.0560 79.7060 349° North 455 524 37,700 1,500 Climbing FlightAware
07:55AM 15.1540 79.6850 348° North 445 512 38,900 720 Climbing FlightAware
07:56AM 15.2380 79.6670 348° North 445 512 38,900  Level FlightAware
07:56AM 15.3060 79.6510 347° North 445 512 38,900  Level FlightAware
07:57AM 15.3750 79.6360 348° North 445 512 38,900  Level FlightAware
07:58AM 15.4430 79.6210 348° North 445 512 38,900  Level FlightAware
07:59AM 15.5290 79.6020 348° North 445 512 38,900  Level FlightAware
07:59AM 15.5970 79.5870 348° North 445 512 38,900  Level FlightAware
08:00AM 15.6660 79.5720 348° North 445 512 38,900  Level FlightAware
08:01AM 15.7340 79.5570 348° North 445 512 38,900 720 Level FlightAware
08:01AM 15.9280 79.5220 350° North 449 517 40,000 720 Climbing FlightAware
08:02AM 16.0020 79.5060 348° North 448 516 40,000  Level FlightAware
08:03AM 16.0710 79.4900 347° North 448 516 40,000  Level FlightAware
08:03AM 16.1740 79.4690 349° North 445 512 40,000  Level FlightAware
08:04AM 16.2600 79.4510 349° North 443 510 40,000  Level FlightAware
08:05AM 16.3490 79.4330 349° North 444 511 40,000  Level FlightAware
08:05AM 16.4190 79.4180 348° North 446 513 40,000  Level FlightAware
08:06AM 16.5040 79.3990 348° North 449 517 40,000  Level FlightAware
08:07AM 16.5970 79.3800 349° North 451 519 40,000  Level FlightAware
08:08AM 16.6910 79.3590 348° North 454 522 40,000  Level FlightAware
08:08AM 16.7720 79.3420 349° North 456 525 40,000  Level FlightAware
08:09AM 16.8740 79.3210 349° North 454 522 40,000  Level FlightAware
08:10AM 16.9430 79.3080 350° North 452 520 40,000  Level FlightAware
08:10AM 17.0330 79.3070 359° North 454 522 40,000  Level FlightAware
08:11AM 17.1110 79.3090 North 455 524 40,000  Level FlightAware
08:12AM 17.2150 79.3140 North 456 525 40,000  Level FlightAware
08:13AM 17.3030 79.3180 North 456 525 40,000  Level FlightAware
08:13AM 17.4060 79.3270 North 456 525 40,000  Level FlightAware
08:14AM 17.5020 79.3350 North 454 522 40,000  Level FlightAware
08:15AM 17.6160 79.3450 North 454 522 40,000  Level FlightAware
08:16AM 17.7160 79.3540 North 453 521 40,000  Level FlightAware
08:17AM 17.8040 79.3620 North 451 519 40,000  Level FlightAware
08:17AM 17.8920 79.3700 North 450 518 40,000  Level FlightAware
08:18AM 17.9760 79.3770 North 448 516 40,000  Level FlightAware
08:19AM 18.0700 79.3850 North 447 514 40,000  Level FlightAware
08:19AM 18.1520 79.3930 North 446 513 40,000  Level FlightAware
08:20AM 18.2350 79.3990 North 445 512 40,000  Level FlightAware
08:21AM 18.3170 79.3930 356° North 441 507 40,000  Level FlightAware
08:21AM 18.4020 79.3720 347° North 439 505 40,000  Level FlightAware
08:22AM 18.4730 79.3510 344° North 442 509 40,000  Level FlightAware
08:23AM 18.5520 79.3290 345° North 443 510 40,000  Level FlightAware
08:23AM 18.6530 79.3030 346° North 445 512 40,000  Level FlightAware
08:24AM 18.7320 79.2820 346° North 446 513 40,000  Level FlightAware
08:25AM 18.7930 79.2650 345° North 446 513 40,000  Level FlightAware
08:26AM 18.9130 79.2340 346° North 450 518 40,000  Level FlightAware
08:26AM 18.9890 79.2140 346° North 449 517 40,000  Level FlightAware
08:27AM 19.0680 79.1930 346° North 449 517 40,000  Level FlightAware
08:28AM 19.1520 79.1710 346° North 447 514 40,000  Level FlightAware
08:28AM 19.2350 79.1470 345° North 447 514 40,000  Level FlightAware
08:29AM 19.3030 79.1280 345° North 447 514 40,000  Level FlightAware
08:30AM 19.3710 79.1090 345° North 447 514 40,000  Level FlightAware
08:30AM 19.4380 79.0900 345° North 447 514 40,000  Level FlightAware
08:31AM 19.5230 79.0650 345° North 447 514 40,000  Level FlightAware
08:32AM 19.5910 79.0460 345° North 447 514 40,000  Level FlightAware
08:33AM 19.6590 79.0270 345° North 447 514 40,000  Level FlightAware
08:33AM 19.7270 79.0080 345° North 447 514 40,000  Level FlightAware
08:34AM 19.8120 78.9830 345° North 447 514 40,000  Level FlightAware
08:35AM 19.8800 78.9640 345° North 447 514 40,000  Level FlightAware
08:35AM 19.9480 78.9450 345° North 447 514 40,000  Level FlightAware
08:36AM 20.0160 78.9250 345° North 447 514 40,000  Level FlightAware
08:37AM 20.0840 78.9060 345° North 447 514 40,000  Level FlightAware
08:37AM 20.1520 78.8870 345° North 447 514 40,000  Level FlightAware
08:40AM 20.3799 78.8416 349° North  Level Estimated
08:41AM 20.4910 78.8195 349° North  Level Estimated
08:42AM 20.6022 78.7972 349° North  Level Estimated
08:43AM 20.7133 78.7750 349° North  Level Estimated
08:44AM 20.8245 78.7527 349° North  Level Estimated
08:45AM 20.9356 78.7304 349° North  Level Estimated
08:46AM 21.0467 78.7081 349° North  Level Estimated
08:47AM 21.1579 78.6857 349° North  Level Estimated
08:48AM 21.2690 78.6633 349° North  Level Estimated
08:49AM 21.3801 78.6408 349° North  Level Estimated
08:50AM 21.4913 78.6183 349° North  Level Estimated
08:51AM 21.6024 78.5958 349° North  Level Estimated
08:52AM 21.7135 78.5733 349° North  Level Estimated
08:53AM 21.8246 78.5507 349° North  Level Estimated
08:54AM 21.9357 78.5281 349° North  Level Estimated
08:55AM 22.0469 78.5054 349° North  Level Estimated
08:56AM 22.1580 78.4827 349° North  Level Estimated
08:57AM 22.2691 78.4600 349° North  Level Estimated
08:58AM 22.3802 78.4372 349° North  Level Estimated
08:59AM 22.4913 78.4144 349° North  Level Estimated
09:00AM 22.6024 78.3916 349° North  Level Estimated
09:01AM 22.7135 78.3687 349° North  Level Estimated
09:02AM 22.8246 78.3458 349° North  Level Estimated
09:02AM 23.2340 78.0540 349° North 427 491 40,000  Level FlightAware
09:03AM 23.3220 78.0290 345° North 429 494 40,000  Level FlightAware
09:03AM 23.3720 78.0150 346° North 429 494 40,000  Level FlightAware
09:04AM 23.4570 77.9910 345° North 430 495 40,000  Level FlightAware
09:05AM 23.5340 77.9690 345° North 431 496 40,000  Level FlightAware
09:05AM 23.6240 77.9440 346° North 431 496 40,000  Level FlightAware
09:06AM 23.7010 77.9220 345° North 431 496 40,000  Level FlightAware
09:07AM 23.7780 77.9000 345° North 431 496 40,000  Level FlightAware
09:07AM 23.8640 77.8760 346° North 429 494 40,000  Level FlightAware
09:08AM 23.9400 77.8540 345° North 430 495 40,000  Level FlightAware
09:09AM 24.0280 77.8290 345° North 427 491 40,000  Level FlightAware
09:10AM 24.1030 77.8080 346° North 426 490 40,000  Level FlightAware
09:10AM 24.1890 77.7830 345° North 427 491 40,000  Level FlightAware
09:11AM 24.2660 77.7610 345° North 427 491 40,000  Level FlightAware
09:12AM 24.3440 77.7390 346° North 428 493 40,000  Level FlightAware
09:12AM 24.4190 77.7170 345° North 428 493 40,000  Level FlightAware
09:13AM 24.5070 77.6920 346° North 426 490 40,000  Level FlightAware
09:14AM 24.6060 77.6630 345° North 426 490 40,000  Level FlightAware
09:15AM 24.6710 77.6440 345° North 426 490 40,000  Level FlightAware
09:15AM 24.7740 77.6150 346° North 426 490 40,000  Level FlightAware
09:16AM 24.8490 77.5930 345° North 424 488 40,000  Level FlightAware
09:17AM 24.9250 77.5720 346° North 423 487 40,000  Level FlightAware
09:17AM 25.0130 77.5460 345° North 422 486 40,000  Level FlightAware
09:18AM 25.0860 77.5250 345° North 421 484 40,000  Level FlightAware
09:19AM 25.1730 77.5000 345° North 422 486 40,000  Level FlightAware
09:20AM 25.2470 77.4780 345° North 421 484 40,000  Level FlightAware
09:20AM 25.3230 77.4560 345° North 420 483 40,000  Level FlightAware
09:21AM 25.4100 77.4310 345° North 420 483 40,000  Level FlightAware
09:22AM 25.4840 77.4090 345° North 421 484 40,000  Level FlightAware
09:22AM 25.5670 77.3850 345° North 421 484 40,000  Level FlightAware
09:23AM 25.6440 77.3620 345° North 421 484 40,000  Level FlightAware
09:24AM 25.7180 77.3400 345° North 421 484 40,000  Level FlightAware
09:24AM 25.8040 77.3150 345° North 422 486 40,000  Level FlightAware
09:25AM 25.8890 77.2900 345° North 423 487 40,000  Level FlightAware
09:26AM 25.9650 77.2680 345° North 421 484 40,000  Level FlightAware
09:27AM 26.0500 77.2420 345° North 420 483 40,000  Level FlightAware
09:27AM 26.1260 77.2210 346° North 421 484 40,000 -540 Level FlightAware
09:28AM 26.2050 77.2120 354° North 432 497 39,300 -1,020 Descending FlightAware
09:29AM 26.2930 77.2080 358° North 427 491 38,600 -960 Descending FlightAware
09:29AM 26.3720 77.2030 357° North 428 493 38,000 -1,320 Descending FlightAware
09:30AM 26.4510 77.2000 358° North 424 488 36,900 -1,800 Descending FlightAware
09:31AM 26.5390 77.1950 357° North 413 475 35,500 -1,920 Descending FlightAware
09:31AM 26.6180 77.1910 357° North 418 481 34,200 -1,920 Descending FlightAware
09:32AM 26.7000 77.1870 358° North 413 475 32,800 -1,920 Descending FlightAware
09:33AM 26.7770 77.1830 357° North 406 467 31,500 -1,980 Descending FlightAware
09:34AM 26.8530 77.1790 357° North 395 455 30,200 -2,100 Descending FlightAware
09:34AM 26.9350 77.1740 357° North 389 448 28,600 -2,100 Descending FlightAware
09:35AM 27.0070 77.1710 358° North 379 436 27,300 -1,800 Descending FlightAware
09:36AM 27.0800 77.1670 357° North 369 425 26,100 -1,800 Descending FlightAware
09:36AM 27.1500 77.1630 357° North 361 415 24,800 -1,920 Descending FlightAware
09:37AM 27.2170 77.1600 358° North 353 406 23,600 -1,800 Descending FlightAware
09:38AM 27.2920 77.1560 357° North 346 398 22,300 -1,740 Descending FlightAware
09:38AM 27.3560 77.1520 357° North 338 389 21,200 -1,680 Descending FlightAware
09:39AM 27.4170 77.1500 358° North 332 382 20,100 -1,560 Descending FlightAware
09:40AM 27.4830 77.1460 357° North 324 373 19,000 -1,560 Descending FlightAware
09:41AM 27.5430 77.1430 357° North 319 367 17,900 -1,680 Descending FlightAware
09:41AM 27.6100 77.1390 357° North 311 358 16,700 -1,380 Descending FlightAware
09:42AM 27.6730 77.1420 North 312 359 15,600 -1,500 Descending FlightAware
09:43AM 27.7360 77.1540 10° North 310 357 14,400 -1,620 Descending FlightAware
09:44AM 27.7890 77.1640 North 307 353 13,500 -1,500 Descending FlightAware
09:44AM 27.8560 77.1770 10° North 300 345 12,200 -1,500 Descending FlightAware
09:45AM 27.9070 77.1870 10° North 293 337 11,300 -1,200 Descending FlightAware
09:46AM 27.9750 77.2000 10° North 277 319 10,400 -1,500 Descending FlightAware
09:46AM 28.0310 77.2110 10° North 275 316 9,200 -1,620 Descending FlightAware
09:47AM 28.0640 77.2170 North 266 306 8,800 -1,140 Descending FlightAware
09:47AM 28.1010 77.2240 North 259 298 8,200 -1,020 Descending FlightAware
09:48AM 28.1360 77.2310 10° North 258 297 7,800 -900 Descending FlightAware
09:48AM 28.1630 77.2360 North 253 291 7,400 -900 Descending FlightAware
09:49AM 28.1980 77.2430 10° North 249 287 7,000 -480 Descending FlightAware
09:49AM 28.2270 77.2490 10° North 237 273 7,000 -240 Level FlightAware
09:50AM 28.2590 77.2550 North 233 268 6,800 -720 Descending FlightAware
09:50AM 28.2910 77.2610 North 230 265 6,300 -1,020 Descending FlightAware
09:51AM 28.3160 77.2660 10° North 228 262 5,900 -1,200 Descending FlightAware
09:51AM 28.3470 77.2720 10° North 224 258 5,200 -1,320 Descending FlightAware
09:52AM 28.3740 77.2770 North 223 257 4,700 -1,320 Descending FlightAware
09:52AM 28.4040 77.2820 North 221 254 4,000 -1,200 Descending FlightAware
09:52AM 28.4280 77.2860 North 214 246 3,600 -1,080 Descending FlightAware
09:53AM 28.4440 77.2890 North 204 235 3,300 -840 Descending FlightAware
09:53AM 28.4700 77.2940 10° North 191 220 3,000 -480 Descending FlightAware
09:54AM 28.4920 77.2980 North 188 216 2,900 -120 Descending FlightAware
09:54AM 28.5130 77.2860 333° Northwest 171 197 2,900  Level FlightAware
09:54AM 28.5220 77.2750 313° West 163 188 2,900  Level FlightAware
09:55AM 28.5250 77.2680 296° West 162 186 2,900  Level FlightAware
09:55AM 28.5310 77.2430 285° West 159 183 2,900 -180 Level FlightAware
09:55AM 28.5330 77.2320 282° West 158 182 2,800 -600 Descending FlightAware
09:56AM 28.5380 77.2130 287° West 143 165 2,500 -660 Descending FlightAware
09:56AM 28.5430 77.1910 285° West 140 161 2,200 -600 Descending FlightAware
09:57AM 28.5480 77.1700 285° West 140 161 1,900 -660 Descending FlightAware
09:57AM 28.5520 77.1520 284° West 141 162 1,600 -660 Descending FlightAware
09:58AM 28.5550 77.1380 284° West 143 165 1,300 -600 Descending FlightAware
09:58AM 28.5580 77.1230 283° West 149 171 1,100 -480 Descending FlightAware
10:09AM 28.5665 77.1031 258° West  Level Estimated
10:10AM 28.5665 77.1031 270° West  Level Estimated